sensor_id;sensor_type;location;lat;lon;timestamp;temperature;humidity
16513;DHT22;8369;48.030;11.598;2023-05-10T00:01:06;14.60;99.90
16513;DHT22;8369;48.030;11.598;2023-05-10T00:03:32;14.60;99.90
16513;DHT22;8369;48.030;11.598;2023-05-10T00:05:58;14.60;99.90
16513;DHT22;8369;48.030;11.598;2023-05-10T00:08:24;14.60;99.90
16513;DHT22;8369;48.030;11.598;2023-05-10T00:10:50;14.60;99.90
16513;DHT22;8369;48.030;11.598;2023-05-10T00:13:16;14.60;99.90
16513;DHT22;8369;48.030;11.598;2023-05-10T00:15:42;14.60;99.90
16513;DHT22;8369;48.030;11.598;2023-05-10T00:18:17;14.60;99.90
16513;DHT22;8369;48.030;11.598;2023-05-10T00:20:44;14.60;99.90
16513;DHT22;8369;48.030;11.598;2023-05-10T00:23:23;14.60;99.90
16513;DHT22;8369;48.030;11.598;2023-05-10T00:25:50;14.60;99.90
16513;DHT22;8369;48.030;11.598;2023-05-10T00:28:16;14.60;99.90
16513;DHT22;8369;48.030;11.598;2023-05-10T00:30:45;14.50;99.90
16513;DHT22;8369;48.030;11.598;2023-05-10T00:33:11;14.50;99.90
16513;DHT22;8369;48.030;11.598;2023-05-10T00:35:38;14.50;99.90
16513;DHT22;8369;48.030;11.598;2023-05-10T00:38:04;14.50;99.90
16513;DHT22;8369;48.030;11.598;2023-05-10T00:40:31;14.50;99.90
16513;DHT22;8369;48.030;11.598;2023-05-10T00:42:57;14.50;99.90
16513;DHT22;8369;48.030;11.598;2023-05-10T00:45:26;14.50;99.90
16513;DHT22;8369;48.030;11.598;2023-05-10T00:48:02;14.50;99.90
16513;DHT22;8369;48.030;11.598;2023-05-10T00:50:30;14.50;99.90
16513;DHT22;8369;48.030;11.598;2023-05-10T00:52:58;14.50;99.90
16513;DHT22;8369;48.030;11.598;2023-05-10T00:55:27;14.50;99.90
16513;DHT22;8369;48.030;11.598;2023-05-10T00:57:53;14.50;99.90
16513;DHT22;8369;48.030;11.598;2023-05-10T01:00:19;14.50;99.90
16513;DHT22;8369;48.030;11.598;2023-05-10T01:02:48;14.50;99.90
16513;DHT22;8369;48.030;11.598;2023-05-10T01:05:16;14.50;99.90
16513;DHT22;8369;48.030;11.598;2023-05-10T01:07:42;14.50;99.90
16513;DHT22;8369;48.030;11.598;2023-05-10T01:10:10;14.50;99.90
16513;DHT22;8369;48.030;11.598;2023-05-10T01:12:39;14.50;99.90
16513;DHT22;8369;48.030;11.598;2023-05-10T01:15:11;14.50;99.90
16513;DHT22;8369;48.030;11.598;2023-05-10T01:17:39;14.50;99.90
16513;DHT22;8369;48.030;11.598;2023-05-10T01:20:07;14.40;99.90
16513;DHT22;8369;48.030;11.598;2023-05-10T01:31:16;14.40;99.90
16513;DHT22;8369;48.030;11.598;2023-05-10T01:33:59;14.40;99.90
16513;DHT22;8369;48.030;11.598;2023-05-10T01:42:07;14.40;99.90
16513;DHT22;8369;48.030;11.598;2023-05-10T01:44:56;14.30;99.90
16513;DHT22;8369;48.030;11.598;2023-05-10T01:47:40;14.30;99.90
16513;DHT22;8369;48.030;11.598;2023-05-10T01:50:17;14.30;99.90
16513;DHT22;8369;48.030;11.598;2023-05-10T01:52:49;14.30;99.90
16513;DHT22;8369;48.030;11.598;2023-05-10T01:55:21;14.30;99.90
16513;DHT22;8369;48.030;11.598;2023-05-10T01:57:58;14.30;99.90
16513;DHT22;8369;48.030;11.598;2023-05-10T02:00:26;14.20;99.90
16513;DHT22;8369;48.030;11.598;2023-05-10T02:03:04;14.20;99.90
16513;DHT22;8369;48.030;11.598;2023-05-10T02:05:33;14.20;99.90
16513;DHT22;8369;48.030;11.598;2023-05-10T02:08:07;14.20;99.90
16513;DHT22;8369;48.030;11.598;2023-05-10T02:10:37;14.20;99.90
16513;DHT22;8369;48.030;11.598;2023-05-10T02:13:06;14.20;99.90
16513;DHT22;8369;48.030;11.598;2023-05-10T02:15:33;14.20;99.90
16513;DHT22;8369;48.030;11.598;2023-05-10T02:18:01;14.20;99.90
16513;DHT22;8369;48.030;11.598;2023-05-10T02:20:30;14.20;99.90
16513;DHT22;8369;48.030;11.598;2023-05-10T02:22:58;14.20;99.90
16513;DHT22;8369;48.030;11.598;2023-05-10T02:25:25;14.20;99.90
16513;DHT22;8369;48.030;11.598;2023-05-10T02:27:57;14.20;99.90
16513;DHT22;8369;48.030;11.598;2023-05-10T02:30:24;14.20;99.90
16513;DHT22;8369;48.030;11.598;2023-05-10T02:32:51;14.10;99.90
16513;DHT22;8369;48.030;11.598;2023-05-10T02:35:18;14.20;99.90
16513;DHT22;8369;48.030;11.598;2023-05-10T02:37:52;14.20;99.90
16513;DHT22;8369;48.030;11.598;2023-05-10T02:40:23;14.20;99.90
16513;DHT22;8369;48.030;11.598;2023-05-10T02:42:51;14.20;99.90
16513;DHT22;8369;48.030;11.598;2023-05-10T02:45:22;14.20;99.90
16513;DHT22;8369;48.030;11.598;2023-05-10T02:47:49;14.20;99.90
16513;DHT22;8369;48.030;11.598;2023-05-10T02:50:16;14.10;99.90
16513;DHT22;8369;48.030;11.598;2023-05-10T02:52:47;14.10;99.90
16513;DHT22;8369;48.030;11.598;2023-05-10T02:55:15;14.10;99.90
16513;DHT22;8369;48.030;11.598;2023-05-10T02:57:55;14.20;99.90
16513;DHT22;8369;48.030;11.598;2023-05-10T03:00:30;14.10;99.90
16513;DHT22;8369;48.030;11.598;2023-05-10T03:02:58;14.10;99.90
16513;DHT22;8369;48.030;11.598;2023-05-10T03:08:54;14.10;99.90
16513;DHT22;8369;48.030;11.598;2023-05-10T03:20:04;14.10;99.90
16513;DHT22;8369;48.030;11.598;2023-05-10T03:22:44;14.10;99.90
16513;DHT22;8369;48.030;11.598;2023-05-10T03:25:12;14.10;99.90
16513;DHT22;8369;48.030;11.598;2023-05-10T03:27:42;14.10;99.90
16513;DHT22;8369;48.030;11.598;2023-05-10T03:30:16;14.10;99.90
16513;DHT22;8369;48.030;11.598;2023-05-10T03:32:44;14.10;99.90
16513;DHT22;8369;48.030;11.598;2023-05-10T03:35:11;14.10;99.90
16513;DHT22;8369;48.030;11.598;2023-05-10T03:37:37;14.10;99.90
16513;DHT22;8369;48.030;11.598;2023-05-10T03:40:10;14.00;99.90
16513;DHT22;8369;48.030;11.598;2023-05-10T03:42:36;14.00;99.90
16513;DHT22;8369;48.030;11.598;2023-05-10T03:45:02;14.10;99.90
16513;DHT22;8369;48.030;11.598;2023-05-10T03:47:28;14.10;99.90
16513;DHT22;8369;48.030;11.598;2023-05-10T03:49:55;14.10;99.90
16513;DHT22;8369;48.030;11.598;2023-05-10T03:52:21;14.00;99.90
16513;DHT22;8369;48.030;11.598;2023-05-10T03:54:50;14.00;99.90
16513;DHT22;8369;48.030;11.598;2023-05-10T03:57:16;14.10;99.90
16513;DHT22;8369;48.030;11.598;2023-05-10T03:59:53;14.00;99.90
16513;DHT22;8369;48.030;11.598;2023-05-10T04:02:19;14.00;99.90
16513;DHT22;8369;48.030;11.598;2023-05-10T04:04:54;14.10;99.90
16513;DHT22;8369;48.030;11.598;2023-05-10T04:07:20;14.10;99.90
16513;DHT22;8369;48.030;11.598;2023-05-10T04:09:47;14.10;99.90
16513;DHT22;8369;48.030;11.598;2023-05-10T04:12:13;14.00;99.90
16513;DHT22;8369;48.030;11.598;2023-05-10T04:14:47;14.00;99.90
16513;DHT22;8369;48.030;11.598;2023-05-10T04:17:13;14.00;99.90
16513;DHT22;8369;48.030;11.598;2023-05-10T04:19:49;14.00;99.90
16513;DHT22;8369;48.030;11.598;2023-05-10T04:22:20;14.00;99.90
16513;DHT22;8369;48.030;11.598;2023-05-10T04:24:47;14.00;99.90
16513;DHT22;8369;48.030;11.598;2023-05-10T04:27:16;14.00;99.90
16513;DHT22;8369;48.030;11.598;2023-05-10T04:29:46;14.00;99.90
16513;DHT22;8369;48.030;11.598;2023-05-10T04:32:13;14.00;99.90
16513;DHT22;8369;48.030;11.598;2023-05-10T04:34:45;14.00;99.90
16513;DHT22;8369;48.030;11.598;2023-05-10T04:37:13;14.00;99.90
16513;DHT22;8369;48.030;11.598;2023-05-10T04:39:40;14.00;99.90
16513;DHT22;8369;48.030;11.598;2023-05-10T04:42:07;14.00;99.90
16513;DHT22;8369;48.030;11.598;2023-05-10T04:44:33;14.00;99.90
16513;DHT22;8369;48.030;11.598;2023-05-10T04:47:03;14.00;99.90
16513;DHT22;8369;48.030;11.598;2023-05-10T04:49:29;14.10;99.90
16513;DHT22;8369;48.030;11.598;2023-05-10T04:51:56;14.00;99.90
16513;DHT22;8369;48.030;11.598;2023-05-10T04:54:22;14.10;99.90
16513;DHT22;8369;48.030;11.598;2023-05-10T04:56:50;14.10;99.90
16513;DHT22;8369;48.030;11.598;2023-05-10T04:59:16;14.00;99.90
16513;DHT22;8369;48.030;11.598;2023-05-10T05:01:43;14.00;99.90
16513;DHT22;8369;48.030;11.598;2023-05-10T05:04:17;14.00;99.90
16513;DHT22;8369;48.030;11.598;2023-05-10T05:06:43;13.90;99.90
16513;DHT22;8369;48.030;11.598;2023-05-10T05:09:15;13.80;99.90
16513;DHT22;8369;48.030;11.598;2023-05-10T05:11:41;13.80;99.90
16513;DHT22;8369;48.030;11.598;2023-05-10T05:14:09;13.70;99.90
16513;DHT22;8369;48.030;11.598;2023-05-10T05:16:35;13.70;99.90
16513;DHT22;8369;48.030;11.598;2023-05-10T05:19:03;13.70;99.90
16513;DHT22;8369;48.030;11.598;2023-05-10T05:21:29;13.70;99.90
16513;DHT22;8369;48.030;11.598;2023-05-10T05:23:55;13.70;99.90
16513;DHT22;8369;48.030;11.598;2023-05-10T05:26:22;13.70;99.90
16513;DHT22;8369;48.030;11.598;2023-05-10T05:29:12;13.70;99.90
16513;DHT22;8369;48.030;11.598;2023-05-10T05:31:39;13.60;99.90
16513;DHT22;8369;48.030;11.598;2023-05-10T05:34:05;13.60;99.90
16513;DHT22;8369;48.030;11.598;2023-05-10T05:36:32;13.70;99.90
16513;DHT22;8369;48.030;11.598;2023-05-10T05:39:03;13.70;99.90
16513;DHT22;8369;48.030;11.598;2023-05-10T05:41:29;13.60;99.90
16513;DHT22;8369;48.030;11.598;2023-05-10T05:43:56;13.60;99.90
16513;DHT22;8369;48.030;11.598;2023-05-10T05:46:23;13.60;99.90
16513;DHT22;8369;48.030;11.598;2023-05-10T05:48:50;13.60;99.90
16513;DHT22;8369;48.030;11.598;2023-05-10T05:51:17;13.60;99.90
16513;DHT22;8369;48.030;11.598;2023-05-10T05:53:45;13.60;99.90
16513;DHT22;8369;48.030;11.598;2023-05-10T05:56:11;13.60;99.90
16513;DHT22;8369;48.030;11.598;2023-05-10T05:58:39;13.70;99.90
16513;DHT22;8369;48.030;11.598;2023-05-10T06:01:05;13.50;99.90
16513;DHT22;8369;48.030;11.598;2023-05-10T06:03:31;13.50;99.90
16513;DHT22;8369;48.030;11.598;2023-05-10T06:05:59;13.30;99.90
16513;DHT22;8369;48.030;11.598;2023-05-10T06:08:25;13.20;99.90
16513;DHT22;8369;48.030;11.598;2023-05-10T06:10:55;13.30;99.90
16513;DHT22;8369;48.030;11.598;2023-05-10T06:13:21;13.30;99.90
16513;DHT22;8369;48.030;11.598;2023-05-10T06:15:49;13.20;99.90
16513;DHT22;8369;48.030;11.598;2023-05-10T06:18:16;13.20;99.90
16513;DHT22;8369;48.030;11.598;2023-05-10T06:20:42;13.20;99.90
16513;DHT22;8369;48.030;11.598;2023-05-10T06:23:11;13.10;99.90
16513;DHT22;8369;48.030;11.598;2023-05-10T06:25:38;13.10;99.90
16513;DHT22;8369;48.030;11.598;2023-05-10T06:28:10;13.00;99.90
16513;DHT22;8369;48.030;11.598;2023-05-10T06:30:36;13.00;99.90
16513;DHT22;8369;48.030;11.598;2023-05-10T06:33:03;13.00;99.90
16513;DHT22;8369;48.030;11.598;2023-05-10T06:35:37;13.00;99.90
16513;DHT22;8369;48.030;11.598;2023-05-10T06:38:04;13.00;99.90
16513;DHT22;8369;48.030;11.598;2023-05-10T06:40:30;13.00;99.90
16513;DHT22;8369;48.030;11.598;2023-05-10T06:42:57;13.00;99.90
16513;DHT22;8369;48.030;11.598;2023-05-10T06:45:25;13.00;99.90
16513;DHT22;8369;48.030;11.598;2023-05-10T06:47:53;13.00;99.90
16513;DHT22;8369;48.030;11.598;2023-05-10T06:50:19;13.00;99.90
16513;DHT22;8369;48.030;11.598;2023-05-10T06:52:45;13.10;99.90
16513;DHT22;8369;48.030;11.598;2023-05-10T06:55:12;13.10;99.90
16513;DHT22;8369;48.030;11.598;2023-05-10T06:57:38;13.20;99.90
16513;DHT22;8369;48.030;11.598;2023-05-10T07:00:06;13.30;99.90
16513;DHT22;8369;48.030;11.598;2023-05-10T07:02:33;13.50;99.90
16513;DHT22;8369;48.030;11.598;2023-05-10T07:04:59;13.60;99.90
16513;DHT22;8369;48.030;11.598;2023-05-10T07:07:28;13.70;99.90
16513;DHT22;8369;48.030;11.598;2023-05-10T07:10:05;13.80;99.90
16513;DHT22;8369;48.030;11.598;2023-05-10T07:12:31;13.90;99.90
16513;DHT22;8369;48.030;11.598;2023-05-10T07:14:58;13.90;99.90
16513;DHT22;8369;48.030;11.598;2023-05-10T07:17:24;14.10;99.90
16513;DHT22;8369;48.030;11.598;2023-05-10T07:19:51;14.20;99.90
16513;DHT22;8369;48.030;11.598;2023-05-10T07:22:34;14.40;99.90
16513;DHT22;8369;48.030;11.598;2023-05-10T07:25:00;14.40;99.90
16513;DHT22;8369;48.030;11.598;2023-05-10T07:27:26;14.40;99.90
16513;DHT22;8369;48.030;11.598;2023-05-10T07:29:52;14.40;99.90
16513;DHT22;8369;48.030;11.598;2023-05-10T07:32:18;14.40;99.90
16513;DHT22;8369;48.030;11.598;2023-05-10T07:34:44;14.50;99.90
16513;DHT22;8369;48.030;11.598;2023-05-10T07:37:12;14.50;99.90
16513;DHT22;8369;48.030;11.598;2023-05-10T07:39:38;14.60;99.90
16513;DHT22;8369;48.030;11.598;2023-05-10T07:42:04;14.60;99.90
16513;DHT22;8369;48.030;11.598;2023-05-10T07:44:32;14.60;99.90
16513;DHT22;8369;48.030;11.598;2023-05-10T07:47:01;14.60;99.90
16513;DHT22;8369;48.030;11.598;2023-05-10T07:49:27;14.80;99.90
16513;DHT22;8369;48.030;11.598;2023-05-10T07:51:55;15.00;99.90
16513;DHT22;8369;48.030;11.598;2023-05-10T07:54:21;15.10;99.90
16513;DHT22;8369;48.030;11.598;2023-05-10T07:56:48;15.00;99.90
16513;DHT22;8369;48.030;11.598;2023-05-10T07:59:16;15.10;99.90
16513;DHT22;8369;48.030;11.598;2023-05-10T08:01:43;15.20;99.90
16513;DHT22;8369;48.030;11.598;2023-05-10T08:04:16;15.20;99.90
16513;DHT22;8369;48.030;11.598;2023-05-10T08:06:41;15.30;99.90
16513;DHT22;8369;48.030;11.598;2023-05-10T08:09:08;15.30;99.90
16513;DHT22;8369;48.030;11.598;2023-05-10T08:11:35;15.40;99.90
16513;DHT22;8369;48.030;11.598;2023-05-10T08:14:01;15.50;99.90
16513;DHT22;8369;48.030;11.598;2023-05-10T08:16:29;15.50;99.90
16513;DHT22;8369;48.030;11.598;2023-05-10T08:18:55;15.50;99.90
16513;DHT22;8369;48.030;11.598;2023-05-10T08:21:22;15.40;99.90
16513;DHT22;8369;48.030;11.598;2023-05-10T08:23:48;15.30;99.90
16513;DHT22;8369;48.030;11.598;2023-05-10T08:26:15;15.30;99.90
16513;DHT22;8369;48.030;11.598;2023-05-10T08:28:45;15.30;99.90
16513;DHT22;8369;48.030;11.598;2023-05-10T08:31:11;15.30;99.90
16513;DHT22;8369;48.030;11.598;2023-05-10T08:33:37;15.40;99.90
16513;DHT22;8369;48.030;11.598;2023-05-10T08:36:04;15.50;99.90
16513;DHT22;8369;48.030;11.598;2023-05-10T08:38:32;15.50;99.90
16513;DHT22;8369;48.030;11.598;2023-05-10T08:41:01;15.50;99.90
16513;DHT22;8369;48.030;11.598;2023-05-10T08:43:29;15.50;99.90
16513;DHT22;8369;48.030;11.598;2023-05-10T08:46:04;15.50;99.90
16513;DHT22;8369;48.030;11.598;2023-05-10T08:48:34;15.50;99.90
16513;DHT22;8369;48.030;11.598;2023-05-10T08:51:02;15.40;99.90
16513;DHT22;8369;48.030;11.598;2023-05-10T08:53:32;15.30;99.90
16513;DHT22;8369;48.030;11.598;2023-05-10T08:56:02;15.30;99.90
16513;DHT22;8369;48.030;11.598;2023-05-10T08:58:29;15.30;99.90
16513;DHT22;8369;48.030;11.598;2023-05-10T09:00:59;15.20;99.90
16513;DHT22;8369;48.030;11.598;2023-05-10T09:03:26;15.20;99.90
16513;DHT22;8369;48.030;11.598;2023-05-10T09:05:55;15.20;99.90
16513;DHT22;8369;48.030;11.598;2023-05-10T09:08:25;15.20;99.90
16513;DHT22;8369;48.030;11.598;2023-05-10T09:10:57;15.20;99.90
16513;DHT22;8369;48.030;11.598;2023-05-10T09:13:24;15.30;99.90
16513;DHT22;8369;48.030;11.598;2023-05-10T09:15:52;15.50;99.90
16513;DHT22;8369;48.030;11.598;2023-05-10T09:18:19;15.70;99.90
16513;DHT22;8369;48.030;11.598;2023-05-10T09:21:03;15.70;99.90
16513;DHT22;8369;48.030;11.598;2023-05-10T09:23:30;15.80;99.90
16513;DHT22;8369;48.030;11.598;2023-05-10T09:26:07;15.70;99.90
16513;DHT22;8369;48.030;11.598;2023-05-10T09:28:58;15.70;99.90
16513;DHT22;8369;48.030;11.598;2023-05-10T09:31:44;15.70;99.90
16513;DHT22;8369;48.030;11.598;2023-05-10T09:34:22;15.60;99.90
16513;DHT22;8369;48.030;11.598;2023-05-10T09:36:59;15.60;99.90
16513;DHT22;8369;48.030;11.598;2023-05-10T09:39:34;15.50;99.90
16513;DHT22;8369;48.030;11.598;2023-05-10T09:42:08;15.50;99.90
16513;DHT22;8369;48.030;11.598;2023-05-10T09:44:37;15.40;99.90
16513;DHT22;8369;48.030;11.598;2023-05-10T09:47:05;15.40;99.90
16513;DHT22;8369;48.030;11.598;2023-05-10T09:49:32;15.40;99.90
16513;DHT22;8369;48.030;11.598;2023-05-10T09:52:08;15.40;99.90
16513;DHT22;8369;48.030;11.598;2023-05-10T09:54:35;15.50;99.90
16513;DHT22;8369;48.030;11.598;2023-05-10T09:57:02;15.50;99.90
16513;DHT22;8369;48.030;11.598;2023-05-10T09:59:42;15.50;99.90
16513;DHT22;8369;48.030;11.598;2023-05-10T10:02:08;15.70;99.90
16513;DHT22;8369;48.030;11.598;2023-05-10T10:04:40;15.60;99.90
16513;DHT22;8369;48.030;11.598;2023-05-10T10:07:07;15.70;99.90
16513;DHT22;8369;48.030;11.598;2023-05-10T10:09:34;15.80;99.90
16513;DHT22;8369;48.030;11.598;2023-05-10T10:12:02;15.90;99.90
16513;DHT22;8369;48.030;11.598;2023-05-10T10:14:38;15.90;99.90
16513;DHT22;8369;48.030;11.598;2023-05-10T10:17:04;16.00;99.90
16513;DHT22;8369;48.030;11.598;2023-05-10T10:19:33;15.90;99.90
16513;DHT22;8369;48.030;11.598;2023-05-10T10:22:02;15.90;99.90
16513;DHT22;8369;48.030;11.598;2023-05-10T10:24:28;15.90;99.90
16513;DHT22;8369;48.030;11.598;2023-05-10T10:26:59;16.00;99.90
16513;DHT22;8369;48.030;11.598;2023-05-10T10:35:20;16.20;99.90
16513;DHT22;8369;48.030;11.598;2023-05-10T10:37:55;16.20;99.90
16513;DHT22;8369;48.030;11.598;2023-05-10T10:40:28;16.20;99.90
16513;DHT22;8369;48.030;11.598;2023-05-10T10:42:55;16.20;99.90
16513;DHT22;8369;48.030;11.598;2023-05-10T10:45:22;16.20;99.90
16513;DHT22;8369;48.030;11.598;2023-05-10T10:47:48;16.30;99.90
16513;DHT22;8369;48.030;11.598;2023-05-10T10:50:15;16.30;99.90
16513;DHT22;8369;48.030;11.598;2023-05-10T10:52:44;16.50;99.90
16513;DHT22;8369;48.030;11.598;2023-05-10T10:55:18;16.70;99.90
16513;DHT22;8369;48.030;11.598;2023-05-10T11:00:30;17.00;99.90
16513;DHT22;8369;48.030;11.598;2023-05-10T11:03:05;17.20;99.90
16513;DHT22;8369;48.030;11.598;2023-05-10T11:05:47;17.20;99.90
16513;DHT22;8369;48.030;11.598;2023-05-10T11:08:20;17.20;99.90
16513;DHT22;8369;48.030;11.598;2023-05-10T11:11:03;17.20;99.90
16513;DHT22;8369;48.030;11.598;2023-05-10T11:13:39;17.10;99.90
16513;DHT22;8369;48.030;11.598;2023-05-10T11:16:22;17.10;99.90
16513;DHT22;8369;48.030;11.598;2023-05-10T11:19:07;17.00;99.90
16513;DHT22;8369;48.030;11.598;2023-05-10T11:21:36;16.80;99.90
16513;DHT22;8369;48.030;11.598;2023-05-10T11:24:15;16.70;99.90
16513;DHT22;8369;48.030;11.598;2023-05-10T11:26:41;16.60;99.90
16513;DHT22;8369;48.030;11.598;2023-05-10T11:29:09;16.40;99.90
16513;DHT22;8369;48.030;11.598;2023-05-10T11:31:44;16.20;99.90
16513;DHT22;8369;48.030;11.598;2023-05-10T11:34:11;16.00;99.90
16513;DHT22;8369;48.030;11.598;2023-05-10T11:36:38;15.80;99.90
16513;DHT22;8369;48.030;11.598;2023-05-10T11:39:05;15.60;99.90
16513;DHT22;8369;48.030;11.598;2023-05-10T11:41:31;15.50;99.90
16513;DHT22;8369;48.030;11.598;2023-05-10T11:43:58;15.40;99.90
16513;DHT22;8369;48.030;11.598;2023-05-10T11:46:26;15.30;99.90
16513;DHT22;8369;48.030;11.598;2023-05-10T11:48:59;15.30;99.90
16513;DHT22;8369;48.030;11.598;2023-05-10T11:51:28;15.20;99.90
16513;DHT22;8369;48.030;11.598;2023-05-10T11:53:56;15.00;99.90
16513;DHT22;8369;48.030;11.598;2023-05-10T11:56:23;14.90;99.90
16513;DHT22;8369;48.030;11.598;2023-05-10T11:58:57;14.70;99.90
16513;DHT22;8369;48.030;11.598;2023-05-10T12:01:27;14.60;99.90
16513;DHT22;8369;48.030;11.598;2023-05-10T12:03:55;14.50;99.90
16513;DHT22;8369;48.030;11.598;2023-05-10T12:06:29;14.40;99.90
16513;DHT22;8369;48.030;11.598;2023-05-10T12:08:57;14.30;99.90
16513;DHT22;8369;48.030;11.598;2023-05-10T12:11:27;14.20;99.90
16513;DHT22;8369;48.030;11.598;2023-05-10T12:13:54;14.00;99.90
16513;DHT22;8369;48.030;11.598;2023-05-10T12:16:29;13.90;99.90
16513;DHT22;8369;48.030;11.598;2023-05-10T12:18:59;13.80;99.90
16513;DHT22;8369;48.030;11.598;2023-05-10T12:21:26;13.80;99.90
16513;DHT22;8369;48.030;11.598;2023-05-10T12:23:56;13.80;99.90
16513;DHT22;8369;48.030;11.598;2023-05-10T12:26:28;13.80;99.90
16513;DHT22;8369;48.030;11.598;2023-05-10T12:29:01;13.80;99.90
16513;DHT22;8369;48.030;11.598;2023-05-10T12:32:10;13.80;99.90
16513;DHT22;8369;48.030;11.598;2023-05-10T12:34:37;13.90;99.90
16513;DHT22;8369;48.030;11.598;2023-05-10T12:37:04;13.90;99.90
16513;DHT22;8369;48.030;11.598;2023-05-10T12:39:43;14.00;99.90
16513;DHT22;8369;48.030;11.598;2023-05-10T12:42:16;14.00;99.90
16513;DHT22;8369;48.030;11.598;2023-05-10T12:44:43;14.00;99.90
16513;DHT22;8369;48.030;11.598;2023-05-10T12:47:09;14.00;99.90
16513;DHT22;8369;48.030;11.598;2023-05-10T12:49:39;14.10;99.90
16513;DHT22;8369;48.030;11.598;2023-05-10T12:52:05;14.10;99.90
16513;DHT22;8369;48.030;11.598;2023-05-10T12:54:34;14.10;99.90
16513;DHT22;8369;48.030;11.598;2023-05-10T12:57:01;14.10;99.90
16513;DHT22;8369;48.030;11.598;2023-05-10T12:59:26;14.10;99.90
16513;DHT22;8369;48.030;11.598;2023-05-10T13:01:54;14.10;99.90
16513;DHT22;8369;48.030;11.598;2023-05-10T13:04:20;14.10;99.90
16513;DHT22;8369;48.030;11.598;2023-05-10T13:06:46;14.10;99.90
16513;DHT22;8369;48.030;11.598;2023-05-10T13:09:12;14.10;99.90
16513;DHT22;8369;48.030;11.598;2023-05-10T13:11:39;14.10;99.90
16513;DHT22;8369;48.030;11.598;2023-05-10T13:14:05;14.10;99.90
16513;DHT22;8369;48.030;11.598;2023-05-10T13:16:31;14.10;99.90
16513;DHT22;8369;48.030;11.598;2023-05-10T13:18:59;14.10;99.90
16513;DHT22;8369;48.030;11.598;2023-05-10T13:21:26;14.20;99.90
16513;DHT22;8369;48.030;11.598;2023-05-10T13:23:53;14.10;99.90
16513;DHT22;8369;48.030;11.598;2023-05-10T13:26:19;14.10;99.90
16513;DHT22;8369;48.030;11.598;2023-05-10T13:28:45;14.10;99.90
16513;DHT22;8369;48.030;11.598;2023-05-10T13:31:17;14.20;99.90
16513;DHT22;8369;48.030;11.598;2023-05-10T13:33:50;14.20;99.90
16513;DHT22;8369;48.030;11.598;2023-05-10T13:36:16;14.20;99.90
16513;DHT22;8369;48.030;11.598;2023-05-10T13:38:44;14.10;99.90
16513;DHT22;8369;48.030;11.598;2023-05-10T13:41:10;14.10;99.90
16513;DHT22;8369;48.030;11.598;2023-05-10T13:43:36;14.10;99.90
16513;DHT22;8369;48.030;11.598;2023-05-10T13:46:02;14.20;99.90
16513;DHT22;8369;48.030;11.598;2023-05-10T13:48:28;14.10;99.90
16513;DHT22;8369;48.030;11.598;2023-05-10T13:50:55;14.10;99.90
16513;DHT22;8369;48.030;11.598;2023-05-10T13:53:25;14.10;99.90
16513;DHT22;8369;48.030;11.598;2023-05-10T13:55:51;14.10;99.90
16513;DHT22;8369;48.030;11.598;2023-05-10T13:58:25;14.00;99.90
16513;DHT22;8369;48.030;11.598;2023-05-10T14:00:51;14.00;99.90
16513;DHT22;8369;48.030;11.598;2023-05-10T14:03:17;14.00;99.90
16513;DHT22;8369;48.030;11.598;2023-05-10T14:05:44;14.00;99.90
16513;DHT22;8369;48.030;11.598;2023-05-10T14:08:11;13.90;99.90
16513;DHT22;8369;48.030;11.598;2023-05-10T14:10:39;14.00;99.90
16513;DHT22;8369;48.030;11.598;2023-05-10T14:13:05;14.00;99.90
16513;DHT22;8369;48.030;11.598;2023-05-10T14:15:32;14.00;99.90
16513;DHT22;8369;48.030;11.598;2023-05-10T14:17:58;14.00;99.90
16513;DHT22;8369;48.030;11.598;2023-05-10T14:20:24;14.00;99.90
16513;DHT22;8369;48.030;11.598;2023-05-10T14:22:50;14.00;99.90
16513;DHT22;8369;48.030;11.598;2023-05-10T14:25:16;14.00;99.90
16513;DHT22;8369;48.030;11.598;2023-05-10T14:27:48;14.00;99.90
16513;DHT22;8369;48.030;11.598;2023-05-10T14:30:21;14.00;99.90
16513;DHT22;8369;48.030;11.598;2023-05-10T14:32:48;14.00;99.90
16513;DHT22;8369;48.030;11.598;2023-05-10T14:35:14;14.00;99.90
16513;DHT22;8369;48.030;11.598;2023-05-10T14:37:40;14.00;99.90
16513;DHT22;8369;48.030;11.598;2023-05-10T14:40:08;14.00;99.90
16513;DHT22;8369;48.030;11.598;2023-05-10T14:42:35;14.00;99.90
16513;DHT22;8369;48.030;11.598;2023-05-10T14:45:04;14.00;99.90
16513;DHT22;8369;48.030;11.598;2023-05-10T14:47:37;14.00;99.90
16513;DHT22;8369;48.030;11.598;2023-05-10T14:50:03;14.00;99.90
16513;DHT22;8369;48.030;11.598;2023-05-10T14:52:30;14.00;99.90
16513;DHT22;8369;48.030;11.598;2023-05-10T14:54:59;13.90;99.90
16513;DHT22;8369;48.030;11.598;2023-05-10T14:57:28;13.80;99.90
16513;DHT22;8369;48.030;11.598;2023-05-10T14:59:55;13.80;99.90
16513;DHT22;8369;48.030;11.598;2023-05-10T15:02:23;13.80;99.90
16513;DHT22;8369;48.030;11.598;2023-05-10T15:04:49;13.80;99.90
16513;DHT22;8369;48.030;11.598;2023-05-10T15:07:17;13.80;99.90
16513;DHT22;8369;48.030;11.598;2023-05-10T15:09:44;13.80;99.90
16513;DHT22;8369;48.030;11.598;2023-05-10T15:12:12;13.80;99.90
16513;DHT22;8369;48.030;11.598;2023-05-10T15:14:38;13.70;99.90
16513;DHT22;8369;48.030;11.598;2023-05-10T15:17:06;13.70;99.90
16513;DHT22;8369;48.030;11.598;2023-05-10T15:19:39;13.60;99.90
16513;DHT22;8369;48.030;11.598;2023-05-10T15:22:17;13.60;99.90
16513;DHT22;8369;48.030;11.598;2023-05-10T15:24:44;13.60;99.90
16513;DHT22;8369;48.030;11.598;2023-05-10T15:27:10;13.60;99.90
16513;DHT22;8369;48.030;11.598;2023-05-10T15:29:36;13.50;99.90
16513;DHT22;8369;48.030;11.598;2023-05-10T15:32:03;13.50;99.90
16513;DHT22;8369;48.030;11.598;2023-05-10T15:34:33;13.50;99.90
16513;DHT22;8369;48.030;11.598;2023-05-10T15:36:59;13.40;99.90
16513;DHT22;8369;48.030;11.598;2023-05-10T15:39:25;13.40;99.90
16513;DHT22;8369;48.030;11.598;2023-05-10T15:41:51;13.40;99.90
16513;DHT22;8369;48.030;11.598;2023-05-10T15:44:17;13.40;99.90
16513;DHT22;8369;48.030;11.598;2023-05-10T15:46:48;13.30;99.90
16513;DHT22;8369;48.030;11.598;2023-05-10T15:49:14;13.30;99.90
16513;DHT22;8369;48.030;11.598;2023-05-10T15:51:43;13.20;99.90
16513;DHT22;8369;48.030;11.598;2023-05-10T15:54:09;13.20;99.90
16513;DHT22;8369;48.030;11.598;2023-05-10T15:56:35;13.30;99.90
16513;DHT22;8369;48.030;11.598;2023-05-10T15:59:01;13.30;99.90
16513;DHT22;8369;48.030;11.598;2023-05-10T16:01:30;13.30;99.90
16513;DHT22;8369;48.030;11.598;2023-05-10T16:03:58;13.20;99.90
16513;DHT22;8369;48.030;11.598;2023-05-10T16:06:26;13.20;99.90
16513;DHT22;8369;48.030;11.598;2023-05-10T16:08:58;13.10;99.90
16513;DHT22;8369;48.030;11.598;2023-05-10T16:11:28;13.20;99.90
16513;DHT22;8369;48.030;11.598;2023-05-10T16:13:55;13.10;99.90
16513;DHT22;8369;48.030;11.598;2023-05-10T16:16:21;13.00;99.90